sensor_id;sensor_type;location;lat;lon;timestamp;P1;durP1;ratioP1;P2;durP2;ratioP2
20828;SDS011;10575;50.124;8.582;2023-03-31T00:01:58;5.85;;;1.70;;
20828;SDS011;10575;50.124;8.582;2023-03-31T00:04:25;5.60;;;1.70;;
20828;SDS011;10575;50.124;8.582;2023-03-31T00:06:51;6.78;;;1.95;;
20828;SDS011;10575;50.124;8.582;2023-03-31T00:09:18;10.30;;;1.88;;
20828;SDS011;10575;50.124;8.582;2023-03-31T00:11:46;5.80;;;1.65;;
20828;SDS011;10575;50.124;8.582;2023-03-31T00:14:12;7.80;;;2.10;;
20828;SDS011;10575;50.124;8.582;2023-03-31T00:16:39;5.70;;;1.83;;
20828;SDS011;10575;50.124;8.582;2023-03-31T00:19:05;7.18;;;2.00;;
20828;SDS011;10575;50.124;8.582;2023-03-31T00:21:34;6.22;;;2.10;;
20828;SDS011;10575;50.124;8.582;2023-03-31T00:24:07;8.30;;;2.50;;
20828;SDS011;10575;50.124;8.582;2023-03-31T00:26:35;8.15;;;2.10;;
20828;SDS011;10575;50.124;8.582;2023-03-31T00:29:01;11.63;;;3.03;;
20828;SDS011;10575;50.124;8.582;2023-03-31T00:31:28;8.88;;;1.95;;
20828;SDS011;10575;50.124;8.582;2023-03-31T00:33:54;8.88;;;2.42;;
20828;SDS011;10575;50.124;8.582;2023-03-31T00:36:20;7.22;;;2.65;;
20828;SDS011;10575;50.124;8.582;2023-03-31T00:38:51;7.57;;;2.20;;
20828;SDS011;10575;50.124;8.582;2023-03-31T00:41:17;6.85;;;2.30;;
20828;SDS011;10575;50.124;8.582;2023-03-31T00:46:52;8.07;;;2.85;;
20828;SDS011;10575;50.124;8.582;2023-03-31T00:49:28;5.57;;;2.55;;
20828;SDS011;10575;50.124;8.582;2023-03-31T00:52:03;6.65;;;3.00;;
20828;SDS011;10575;50.124;8.582;2023-03-31T00:54:37;7.63;;;2.35;;
20828;SDS011;10575;50.124;8.582;2023-03-31T00:57:04;9.48;;;2.65;;
20828;SDS011;10575;50.124;8.582;2023-03-31T00:59:33;5.82;;;2.33;;
20828;SDS011;10575;50.124;8.582;2023-03-31T01:02:02;10.13;;;2.65;;
20828;SDS011;10575;50.124;8.582;2023-03-31T01:04:29;8.30;;;2.30;;
20828;SDS011;10575;50.124;8.582;2023-03-31T01:07:17;6.20;;;2.20;;
20828;SDS011;10575;50.124;8.582;2023-03-31T01:09:47;7.15;;;2.50;;
20828;SDS011;10575;50.124;8.582;2023-03-31T01:12:15;7.63;;;2.33;;
20828;SDS011;10575;50.124;8.582;2023-03-31T01:14:43;9.88;;;2.38;;
20828;SDS011;10575;50.124;8.582;2023-03-31T01:17:08;7.85;;;2.67;;
20828;SDS011;10575;50.124;8.582;2023-03-31T01:25:33;7.93;;;2.67;;
20828;SDS011;10575;50.124;8.582;2023-03-31T01:28:29;7.53;;;3.00;;
20828;SDS011;10575;50.124;8.582;2023-03-31T01:42:51;8.63;;;2.60;;
20828;SDS011;10575;50.124;8.582;2023-03-31T01:48:03;7.78;;;2.75;;
20828;SDS011;10575;50.124;8.582;2023-03-31T01:50:44;6.13;;;2.15;;
20828;SDS011;10575;50.124;8.582;2023-03-31T01:56:30;5.07;;;1.98;;
20828;SDS011;10575;50.124;8.582;2023-03-31T01:59:16;7.78;;;2.13;;
20828;SDS011;10575;50.124;8.582;2023-03-31T02:01:56;8.45;;;2.63;;
20828;SDS011;10575;50.124;8.582;2023-03-31T02:04:40;7.88;;;2.38;;
20828;SDS011;10575;50.124;8.582;2023-03-31T02:07:12;3.08;;;1.63;;
20828;SDS011;10575;50.124;8.582;2023-03-31T02:09:43;11.52;;;2.30;;
20828;SDS011;10575;50.124;8.582;2023-03-31T02:12:13;6.55;;;1.90;;
20828;SDS011;10575;50.124;8.582;2023-03-31T02:14:42;6.72;;;2.33;;
20828;SDS011;10575;50.124;8.582;2023-03-31T02:17:10;7.47;;;2.20;;
20828;SDS011;10575;50.124;8.582;2023-03-31T02:19:42;8.68;;;2.22;;
20828;SDS011;10575;50.124;8.582;2023-03-31T02:22:10;9.80;;;2.25;;
20828;SDS011;10575;50.124;8.582;2023-03-31T02:24:37;7.70;;;2.30;;
20828;SDS011;10575;50.124;8.582;2023-03-31T02:27:06;8.30;;;2.03;;
20828;SDS011;10575;50.124;8.582;2023-03-31T02:29:39;5.03;;;1.88;;
20828;SDS011;10575;50.124;8.582;2023-03-31T02:32:17;6.88;;;2.25;;
20828;SDS011;10575;50.124;8.582;2023-03-31T02:34:45;6.20;;;2.65;;
20828;SDS011;10575;50.124;8.582;2023-03-31T02:37:11;5.25;;;2.00;;
20828;SDS011;10575;50.124;8.582;2023-03-31T02:39:37;6.50;;;2.00;;
20828;SDS011;10575;50.124;8.582;2023-03-31T02:42:07;5.57;;;2.50;;
20828;SDS011;10575;50.124;8.582;2023-03-31T02:44:33;7.85;;;2.80;;
20828;SDS011;10575;50.124;8.582;2023-03-31T02:47:03;5.90;;;2.10;;
20828;SDS011;10575;50.124;8.582;2023-03-31T02:49:32;3.55;;;1.98;;
20828;SDS011;10575;50.124;8.582;2023-03-31T03:03:11;8.77;;;2.90;;
20828;SDS011;10575;50.124;8.582;2023-03-31T03:08:45;9.43;;;2.70;;
20828;SDS011;10575;50.124;8.582;2023-03-31T03:17:15;8.07;;;2.53;;
20828;SDS011;10575;50.124;8.582;2023-03-31T03:19:54;7.43;;;2.22;;
20828;SDS011;10575;50.124;8.582;2023-03-31T03:22:22;6.97;;;2.17;;
20828;SDS011;10575;50.124;8.582;2023-03-31T03:24:48;7.03;;;2.97;;
20828;SDS011;10575;50.124;8.582;2023-03-31T03:27:14;5.90;;;2.55;;
20828;SDS011;10575;50.124;8.582;2023-03-31T03:29:40;9.60;;;2.70;;
20828;SDS011;10575;50.124;8.582;2023-03-31T03:32:07;8.57;;;2.70;;
20828;SDS011;10575;50.124;8.582;2023-03-31T03:34:33;17.25;;;2.42;;
20828;SDS011;10575;50.124;8.582;2023-03-31T03:36:59;7.25;;;2.15;;
20828;SDS011;10575;50.124;8.582;2023-03-31T03:39:24;8.98;;;2.10;;
20828;SDS011;10575;50.124;8.582;2023-03-31T03:41:49;10.70;;;2.65;;
20828;SDS011;10575;50.124;8.582;2023-03-31T03:44:15;7.57;;;2.03;;
20828;SDS011;10575;50.124;8.582;2023-03-31T03:46:40;12.52;;;3.00;;
20828;SDS011;10575;50.124;8.582;2023-03-31T03:49:06;10.45;;;2.67;;
20828;SDS011;10575;50.124;8.582;2023-03-31T03:51:32;7.88;;;2.72;;
20828;SDS011;10575;50.124;8.582;2023-03-31T03:53:57;6.25;;;2.13;;
20828;SDS011;10575;50.124;8.582;2023-03-31T03:56:22;9.38;;;2.80;;
20828;SDS011;10575;50.124;8.582;2023-03-31T03:58:48;9.65;;;2.30;;
20828;SDS011;10575;50.124;8.582;2023-03-31T04:01:14;9.05;;;2.22;;
20828;SDS011;10575;50.124;8.582;2023-03-31T04:03:40;6.32;;;2.40;;
20828;SDS011;10575;50.124;8.582;2023-03-31T04:06:05;5.65;;;2.70;;
20828;SDS011;10575;50.124;8.582;2023-03-31T04:08:31;7.57;;;2.17;;
20828;SDS011;10575;50.124;8.582;2023-03-31T04:10:56;9.73;;;2.60;;
20828;SDS011;10575;50.124;8.582;2023-03-31T04:13:22;8.48;;;2.30;;
20828;SDS011;10575;50.124;8.582;2023-03-31T04:15:47;8.75;;;2.63;;
20828;SDS011;10575;50.124;8.582;2023-03-31T04:18:13;8.23;;;2.22;;
20828;SDS011;10575;50.124;8.582;2023-03-31T04:20:48;8.38;;;2.53;;
20828;SDS011;10575;50.124;8.582;2023-03-31T04:23:19;9.23;;;2.58;;
20828;SDS011;10575;50.124;8.582;2023-03-31T04:25:47;5.40;;;2.30;;
20828;SDS011;10575;50.124;8.582;2023-03-31T04:28:14;8.40;;;2.53;;
20828;SDS011;10575;50.124;8.582;2023-03-31T04:30:39;8.50;;;2.80;;
20828;SDS011;10575;50.124;8.582;2023-03-31T04:33:05;9.20;;;2.40;;
20828;SDS011;10575;50.124;8.582;2023-03-31T04:35:30;6.60;;;2.20;;
20828;SDS011;10575;50.124;8.582;2023-03-31T04:38:06;7.85;;;2.53;;
20828;SDS011;10575;50.124;8.582;2023-03-31T04:40:32;10.90;;;2.90;;
20828;SDS011;10575;50.124;8.582;2023-03-31T04:42:59;11.98;;;2.90;;
20828;SDS011;10575;50.124;8.582;2023-03-31T04:45:25;12.90;;;3.38;;
20828;SDS011;10575;50.124;8.582;2023-03-31T04:47:50;12.20;;;3.17;;
20828;SDS011;10575;50.124;8.582;2023-03-31T04:50:16;17.02;;;3.15;;
20828;SDS011;10575;50.124;8.582;2023-03-31T04:52:42;9.38;;;2.95;;
20828;SDS011;10575;50.124;8.582;2023-03-31T04:55:07;6.88;;;2.60;;
20828;SDS011;10575;50.124;8.582;2023-03-31T04:57:33;10.90;;;3.42;;
20828;SDS011;10575;50.124;8.582;2023-03-31T04:59:59;6.45;;;2.70;;
20828;SDS011;10575;50.124;8.582;2023-03-31T05:02:24;10.98;;;2.75;;
20828;SDS011;10575;50.124;8.582;2023-03-31T05:04:50;8.63;;;2.85;;
20828;SDS011;10575;50.124;8.582;2023-03-31T05:07:16;9.68;;;3.97;;
20828;SDS011;10575;50.124;8.582;2023-03-31T05:09:42;5.55;;;2.70;;
20828;SDS011;10575;50.124;8.582;2023-03-31T05:12:08;8.20;;;2.85;;
20828;SDS011;10575;50.124;8.582;2023-03-31T05:14:34;8.65;;;3.20;;
20828;SDS011;10575;50.124;8.582;2023-03-31T05:16:59;13.63;;;3.72;;
20828;SDS011;10575;50.124;8.582;2023-03-31T05:19:25;12.35;;;3.60;;
20828;SDS011;10575;50.124;8.582;2023-03-31T05:21:50;12.68;;;3.83;;
20828;SDS011;10575;50.124;8.582;2023-03-31T05:24:16;16.30;;;3.78;;
20828;SDS011;10575;50.124;8.582;2023-03-31T05:26:42;9.05;;;3.42;;
20828;SDS011;10575;50.124;8.582;2023-03-31T05:29:12;11.95;;;3.85;;
20828;SDS011;10575;50.124;8.582;2023-03-31T05:31:38;12.02;;;4.15;;
20828;SDS011;10575;50.124;8.582;2023-03-31T05:34:04;11.23;;;3.75;;
20828;SDS011;10575;50.124;8.582;2023-03-31T05:36:29;11.65;;;3.03;;
20828;SDS011;10575;50.124;8.582;2023-03-31T05:38:56;15.70;;;3.80;;
20828;SDS011;10575;50.124;8.582;2023-03-31T05:41:21;8.77;;;3.50;;
20828;SDS011;10575;50.124;8.582;2023-03-31T05:43:47;12.45;;;3.60;;
20828;SDS011;10575;50.124;8.582;2023-03-31T05:46:12;12.30;;;3.42;;
20828;SDS011;10575;50.124;8.582;2023-03-31T05:48:38;10.50;;;3.08;;
20828;SDS011;10575;50.124;8.582;2023-03-31T05:51:04;8.48;;;2.97;;
20828;SDS011;10575;50.124;8.582;2023-03-31T05:53:29;15.40;;;3.47;;
20828;SDS011;10575;50.124;8.582;2023-03-31T05:55:58;12.82;;;3.28;;
20828;SDS011;10575;50.124;8.582;2023-03-31T05:58:26;7.82;;;2.78;;
20828;SDS011;10575;50.124;8.582;2023-03-31T06:00:59;10.23;;;3.13;;
20828;SDS011;10575;50.124;8.582;2023-03-31T06:03:29;12.43;;;3.42;;
20828;SDS011;10575;50.124;8.582;2023-03-31T06:05:56;15.45;;;2.92;;
20828;SDS011;10575;50.124;8.582;2023-03-31T06:08:21;15.57;;;3.00;;
20828;SDS011;10575;50.124;8.582;2023-03-31T06:10:47;9.77;;;3.10;;
20828;SDS011;10575;50.124;8.582;2023-03-31T06:13:12;11.48;;;3.88;;
20828;SDS011;10575;50.124;8.582;2023-03-31T06:15:38;9.13;;;3.08;;
20828;SDS011;10575;50.124;8.582;2023-03-31T06:18:03;10.40;;;4.32;;
20828;SDS011;10575;50.124;8.582;2023-03-31T06:20:31;10.95;;;3.75;;
20828;SDS011;10575;50.124;8.582;2023-03-31T06:22:56;10.82;;;2.80;;
20828;SDS011;10575;50.124;8.582;2023-03-31T06:25:22;11.75;;;2.80;;
20828;SDS011;10575;50.124;8.582;2023-03-31T06:27:48;11.40;;;3.17;;
20828;SDS011;10575;50.124;8.582;2023-03-31T06:30:13;8.57;;;3.10;;
20828;SDS011;10575;50.124;8.582;2023-03-31T06:32:39;11.50;;;3.08;;
20828;SDS011;10575;50.124;8.582;2023-03-31T06:35:04;13.73;;;2.80;;
20828;SDS011;10575;50.124;8.582;2023-03-31T06:37:30;16.83;;;3.22;;
20828;SDS011;10575;50.124;8.582;2023-03-31T06:39:56;10.55;;;3.03;;
20828;SDS011;10575;50.124;8.582;2023-03-31T06:42:21;8.50;;;2.80;;
20828;SDS011;10575;50.124;8.582;2023-03-31T06:44:47;7.32;;;2.50;;
20828;SDS011;10575;50.124;8.582;2023-03-31T06:47:12;12.15;;;3.42;;
20828;SDS011;10575;50.124;8.582;2023-03-31T06:49:38;10.43;;;3.05;;
20828;SDS011;10575;50.124;8.582;2023-03-31T06:52:03;11.50;;;3.38;;
20828;SDS011;10575;50.124;8.582;2023-03-31T06:54:29;7.47;;;3.28;;
20828;SDS011;10575;50.124;8.582;2023-03-31T06:56:55;13.30;;;3.22;;
20828;SDS011;10575;50.124;8.582;2023-03-31T06:59:20;9.73;;;2.72;;
20828;SDS011;10575;50.124;8.582;2023-03-31T07:01:46;8.57;;;3.70;;
20828;SDS011;10575;50.124;8.582;2023-03-31T07:04:12;12.32;;;3.92;;
20828;SDS011;10575;50.124;8.582;2023-03-31T07:06:38;12.18;;;3.58;;
20828;SDS011;10575;50.124;8.582;2023-03-31T07:09:03;10.23;;;3.22;;
20828;SDS011;10575;50.124;8.582;2023-03-31T07:11:29;10.55;;;3.70;;
20828;SDS011;10575;50.124;8.582;2023-03-31T07:13:54;11.40;;;3.80;;
20828;SDS011;10575;50.124;8.582;2023-03-31T07:16:20;8.63;;;3.95;;
20828;SDS011;10575;50.124;8.582;2023-03-31T07:18:45;16.25;;;4.25;;
20828;SDS011;10575;50.124;8.582;2023-03-31T07:21:11;9.05;;;4.10;;
20828;SDS011;10575;50.124;8.582;2023-03-31T07:23:36;10.77;;;3.80;;
20828;SDS011;10575;50.124;8.582;2023-03-31T07:26:02;12.00;;;4.38;;
20828;SDS011;10575;50.124;8.582;2023-03-31T07:28:28;12.50;;;4.38;;
20828;SDS011;10575;50.124;8.582;2023-03-31T07:30:54;8.73;;;4.03;;
20828;SDS011;10575;50.124;8.582;2023-03-31T07:33:20;11.75;;;4.80;;
20828;SDS011;10575;50.124;8.582;2023-03-31T07:35:45;10.40;;;4.38;;
20828;SDS011;10575;50.124;8.582;2023-03-31T07:38:11;21.40;;;5.38;;
20828;SDS011;10575;50.124;8.582;2023-03-31T07:40:37;12.63;;;5.40;;
20828;SDS011;10575;50.124;8.582;2023-03-31T07:43:04;19.92;;;5.85;;
20828;SDS011;10575;50.124;8.582;2023-03-31T07:45:30;8.77;;;4.90;;
20828;SDS011;10575;50.124;8.582;2023-03-31T07:47:56;12.32;;;5.13;;
20828;SDS011;10575;50.124;8.582;2023-03-31T07:50:22;9.68;;;4.97;;
20828;SDS011;10575;50.124;8.582;2023-03-31T07:52:48;12.68;;;5.00;;
20828;SDS011;10575;50.124;8.582;2023-03-31T07:55:15;8.60;;;4.80;;
20828;SDS011;10575;50.124;8.582;2023-03-31T07:57:41;11.13;;;5.00;;
20828;SDS011;10575;50.124;8.582;2023-03-31T08:00:08;9.15;;;4.80;;
20828;SDS011;10575;50.124;8.582;2023-03-31T08:02:36;9.15;;;4.78;;
20828;SDS011;10575;50.124;8.582;2023-03-31T08:05:02;13.98;;;5.00;;
20828;SDS011;10575;50.124;8.582;2023-03-31T08:07:29;8.68;;;4.18;;
20828;SDS011;10575;50.124;8.582;2023-03-31T08:09:58;10.30;;;4.93;;
20828;SDS011;10575;50.124;8.582;2023-03-31T08:12:23;10.32;;;4.00;;
20828;SDS011;10575;50.124;8.582;2023-03-31T08:14:49;11.65;;;4.20;;
20828;SDS011;10575;50.124;8.582;2023-03-31T08:17:15;10.98;;;4.22;;
20828;SDS011;10575;50.124;8.582;2023-03-31T08:19:41;9.35;;;3.80;;
20828;SDS011;10575;50.124;8.582;2023-03-31T08:22:06;10.48;;;3.60;;
20828;SDS011;10575;50.124;8.582;2023-03-31T08:24:32;8.07;;;3.45;;
20828;SDS011;10575;50.124;8.582;2023-03-31T08:26:57;5.32;;;3.42;;
20828;SDS011;10575;50.124;8.582;2023-03-31T08:29:23;6.25;;;3.40;;
20828;SDS011;10575;50.124;8.582;2023-03-31T08:31:48;14.10;;;3.80;;
20828;SDS011;10575;50.124;8.582;2023-03-31T08:34:14;7.63;;;3.15;;
20828;SDS011;10575;50.124;8.582;2023-03-31T08:36:39;6.30;;;3.55;;
20828;SDS011;10575;50.124;8.582;2023-03-31T08:39:05;8.10;;;3.88;;
20828;SDS011;10575;50.124;8.582;2023-03-31T08:44:35;8.20;;;3.28;;
20828;SDS011;10575;50.124;8.582;2023-03-31T08:47:10;7.28;;;3.17;;
20828;SDS011;10575;50.124;8.582;2023-03-31T08:49:48;8.25;;;3.25;;
20828;SDS011;10575;50.124;8.582;2023-03-31T08:52:22;7.95;;;3.53;;
20828;SDS011;10575;50.124;8.582;2023-03-31T08:55:00;10.10;;;3.80;;
20828;SDS011;10575;50.124;8.582;2023-03-31T08:57:38;6.00;;;3.65;;
20828;SDS011;10575;50.124;8.582;2023-03-31T09:00:14;8.98;;;3.30;;
20828;SDS011;10575;50.124;8.582;2023-03-31T09:02:55;8.98;;;3.90;;
20828;SDS011;10575;50.124;8.582;2023-03-31T09:05:33;12.02;;;3.95;;
20828;SDS011;10575;50.124;8.582;2023-03-31T09:08:17;8.02;;;4.05;;
20828;SDS011;10575;50.124;8.582;2023-03-31T09:10:58;12.13;;;4.43;;
20828;SDS011;10575;50.124;8.582;2023-03-31T09:16:25;7.07;;;3.70;;
20828;SDS011;10575;50.124;8.582;2023-03-31T09:19:17;8.85;;;3.42;;
20828;SDS011;10575;50.124;8.582;2023-03-31T09:21:50;5.38;;;3.38;;
20828;SDS011;10575;50.124;8.582;2023-03-31T09:24:31;5.78;;;2.92;;
20828;SDS011;10575;50.124;8.582;2023-03-31T09:27:02;7.32;;;2.70;;
20828;SDS011;10575;50.124;8.582;2023-03-31T09:32:30;4.85;;;2.53;;
20828;SDS011;10575;50.124;8.582;2023-03-31T09:34:58;6.68;;;2.72;;
20828;SDS011;10575;50.124;8.582;2023-03-31T09:37:29;5.75;;;2.97;;
20828;SDS011;10575;50.124;8.582;2023-03-31T09:39:58;6.45;;;2.58;;
20828;SDS011;10575;50.124;8.582;2023-03-31T09:42:31;5.50;;;2.30;;
20828;SDS011;10575;50.124;8.582;2023-03-31T09:44:58;8.52;;;2.72;;
20828;SDS011;10575;50.124;8.582;2023-03-31T09:50:21;7.43;;;2.70;;
20828;SDS011;10575;50.124;8.582;2023-03-31T09:52:49;8.57;;;3.00;;
20828;SDS011;10575;50.124;8.582;2023-03-31T09:55:19;9.23;;;2.35;;
20828;SDS011;10575;50.124;8.582;2023-03-31T09:57:47;9.45;;;2.80;;
20828;SDS011;10575;50.124;8.582;2023-03-31T10:00:16;9.20;;;3.08;;
20828;SDS011;10575;50.124;8.582;2023-03-31T10:02:49;10.75;;;3.10;;
20828;SDS011;10575;50.124;8.582;2023-03-31T10:05:21;6.60;;;2.95;;
20828;SDS011;10575;50.124;8.582;2023-03-31T10:10:48;7.63;;;2.60;;
20828;SDS011;10575;50.124;8.582;2023-03-31T10:13:21;10.73;;;2.65;;
20828;SDS011;10575;50.124;8.582;2023-03-31T10:15:53;12.43;;;2.83;;
20828;SDS011;10575;50.124;8.582;2023-03-31T10:18:35;9.93;;;2.38;;
20828;SDS011;10575;50.124;8.582;2023-03-31T10:21:04;9.07;;;2.03;;
20828;SDS011;10575;50.124;8.582;2023-03-31T10:23:32;11.80;;;2.58;;
20828;SDS011;10575;50.124;8.582;2023-03-31T10:25:59;15.15;;;3.17;;
20828;SDS011;10575;50.124;8.582;2023-03-31T10:28:29;9.95;;;3.05;;
20828;SDS011;10575;50.124;8.582;2023-03-31T10:30:58;11.07;;;1.80;;
20828;SDS011;10575;50.124;8.582;2023-03-31T10:33:25;7.60;;;2.40;;
20828;SDS011;10575;50.124;8.582;2023-03-31T10:35:56;6.93;;;1.45;;
20828;SDS011;10575;50.124;8.582;2023-03-31T10:38:25;7.95;;;1.80;;
20828;SDS011;10575;50.124;8.582;2023-03-31T10:40:54;8.65;;;1.88;;
20828;SDS011;10575;50.124;8.582;2023-03-31T10:43:28;10.77;;;2.00;;
20828;SDS011;10575;50.124;8.582;2023-03-31T10:46:15;7.95;;;2.35;;
20828;SDS011;10575;50.124;8.582;2023-03-31T10:48:41;9.45;;;1.55;;
20828;SDS011;10575;50.124;8.582;2023-03-31T10:53:47;6.43;;;1.00;;
20828;SDS011;10575;50.124;8.582;2023-03-31T11:04:24;5.25;;;1.50;;
20828;SDS011;10575;50.124;8.582;2023-03-31T11:13:03;3.35;;;1.70;;
20828;SDS011;10575;50.124;8.582;2023-03-31T11:15:55;6.50;;;1.65;;
20828;SDS011;10575;50.124;8.582;2023-03-31T11:26:59;2.65;;;1.00;;
20828;SDS011;10575;50.124;8.582;2023-03-31T11:35:13;6.25;;;1.52;;
20828;SDS011;10575;50.124;8.582;2023-03-31T11:43:35;7.05;;;1.67;;
20828;SDS011;10575;50.124;8.582;2023-03-31T11:46:27;3.47;;;1.55;;
20828;SDS011;10575;50.124;8.582;2023-03-31T11:49:07;6.30;;;1.98;;
20828;SDS011;10575;50.124;8.582;2023-03-31T11:54:43;11.32;;;2.42;;
20828;SDS011;10575;50.124;8.582;2023-03-31T12:00:11;10.20;;;2.28;;
20828;SDS011;10575;50.124;8.582;2023-03-31T12:05:57;10.13;;;2.50;;
20828;SDS011;10575;50.124;8.582;2023-03-31T12:08:29;7.55;;;2.00;;
20828;SDS011;10575;50.124;8.582;2023-03-31T12:10:59;9.57;;;2.38;;
20828;SDS011;10575;50.124;8.582;2023-03-31T12:16:55;10.48;;;2.33;;
20828;SDS011;10575;50.124;8.582;2023-03-31T12:19:44;12.48;;;2.88;;
20828;SDS011;10575;50.124;8.582;2023-03-31T12:22:27;9.40;;;2.67;;
20828;SDS011;10575;50.124;8.582;2023-03-31T12:24:58;10.10;;;2.33;;
20828;SDS011;10575;50.124;8.582;2023-03-31T12:27:40;9.68;;;3.08;;
20828;SDS011;10575;50.124;8.582;2023-03-31T12:30:12;13.40;;;4.20;;
20828;SDS011;10575;50.124;8.582;2023-03-31T12:32:52;11.18;;;5.45;;
20828;SDS011;10575;50.124;8.582;2023-03-31T12:38:34;17.23;;;10.30;;
20828;SDS011;10575;50.124;8.582;2023-03-31T12:44:15;8.70;;;2.80;;
20828;SDS011;10575;50.124;8.582;2023-03-31T12:47:10;8.23;;;3.00;;
20828;SDS011;10575;50.124;8.582;2023-03-31T12:50:01;7.40;;;4.15;;
20828;SDS011;10575;50.124;8.582;2023-03-31T12:53:02;4.97;;;2.55;;
20828;SDS011;10575;50.124;8.582;2023-03-31T12:55:48;13.43;;;5.05;;
20828;SDS011;10575;50.124;8.582;2023-03-31T13:06:00;11.23;;;4.78;;
20828;SDS011;10575;50.124;8.582;2023-03-31T13:14:05;9.45;;;3.47;;
20828;SDS011;10575;50.124;8.582;2023-03-31T13:16:51;6.50;;;2.15;;
20828;SDS011;10575;50.124;8.582;2023-03-31T13:19:35;18.38;;;6.10;;
20828;SDS011;10575;50.124;8.582;2023-03-31T13:22:02;8.48;;;3.03;;
20828;SDS011;10575;50.124;8.582;2023-03-31T13:24:29;12.23;;;2.03;;
20828;SDS011;10575;50.124;8.582;2023-03-31T13:26:57;7.68;;;2.30;;
20828;SDS011;10575;50.124;8.582;2023-03-31T13:29:43;7.75;;;3.17;;
20828;SDS011;10575;50.124;8.582;2023-03-31T13:34:53;11.45;;;2.55;;
20828;SDS011;10575;50.124;8.582;2023-03-31T13:40:24;7.05;;;2.13;;
20828;SDS011;10575;50.124;8.582;2023-03-31T13:43:27;5.60;;;1.38;;
20828;SDS011;10575;50.124;8.582;2023-03-31T13:45:57;5.72;;;1.48;;
20828;SDS011;10575;50.124;8.582;2023-03-31T13:48:41;3.05;;;1.50;;
20828;SDS011;10575;50.124;8.582;2023-03-31T13:51:18;3.33;;;0.80;;
20828;SDS011;10575;50.124;8.582;2023-03-31T14:02:35;2.50;;;1.15;;
20828;SDS011;10575;50.124;8.582;2023-03-31T14:07:56;2.67;;;0.98;;
20828;SDS011;10575;50.124;8.582;2023-03-31T14:10:36;3.45;;;0.75;;
20828;SDS011;10575;50.124;8.582;2023-03-31T14:13:03;1.88;;;0.80;;
20828;SDS011;10575;50.124;8.582;2023-03-31T14:15:30;3.13;;;0.60;;
20828;SDS011;10575;50.124;8.582;2023-03-31T14:17:57;3.92;;;0.93;;
20828;SDS011;10575;50.124;8.582;2023-03-31T14:20:34;2.50;;;0.80;;
20828;SDS011;10575;50.124;8.582;2023-03-31T14:25:56;2.65;;;1.20;;
20828;SDS011;10575;50.124;8.582;2023-03-31T14:37:05;7.10;;;1.40;;
20828;SDS011;10575;50.124;8.582;2023-03-31T14:39:42;6.47;;;1.45;;
20828;SDS011;10575;50.124;8.582;2023-03-31T14:42:11;5.80;;;1.60;;
20828;SDS011;10575;50.124;8.582;2023-03-31T14:44:39;4.82;;;1.20;;
20828;SDS011;10575;50.124;8.582;2023-03-31T14:47:12;3.17;;;1.30;;
20828;SDS011;10575;50.124;8.582;2023-03-31T14:49:39;3.63;;;1.30;;
20828;SDS011;10575;50.124;8.582;2023-03-31T14:52:17;3.65;;;1.23;;
20828;SDS011;10575;50.124;8.582;2023-03-31T14:54:47;5.97;;;1.30;;
20828;SDS011;10575;50.124;8.582;2023-03-31T14:57:16;6.57;;;1.27;;
20828;SDS011;10575;50.124;8.582;2023-03-31T14:59:45;5.32;;;1.35;;
20828;SDS011;10575;50.124;8.582;2023-03-31T15:02:17;3.05;;;1.40;;
20828;SDS011;10575;50.124;8.582;2023-03-31T15:04:50;8.60;;;1.38;;
20828;SDS011;10575;50.124;8.582;2023-03-31T15:07:16;7.22;;;2.03;;
20828;SDS011;10575;50.124;8.582;2023-03-31T15:09:43;4.97;;;1.70;;
20828;SDS011;10575;50.124;8.582;2023-03-31T15:12:14;4.15;;;1.70;;
20828;SDS011;10575;50.124;8.582;2023-03-31T15:14:44;8.98;;;1.98;;
20828;SDS011;10575;50.124;8.582;2023-03-31T15:17:17;6.55;;;1.40;;
20828;SDS011;10575;50.124;8.582;2023-03-31T15:19:44;5.20;;;1.13;;
20828;SDS011;10575;50.124;8.582;2023-03-31T15:22:11;2.80;;;0.95;;
20828;SDS011;10575;50.124;8.582;2023-03-31T15:24:40;11.05;;;1.35;;
20828;SDS011;10575;50.124;8.582;2023-03-31T15:27:07;1.90;;;0.95;;
20828;SDS011;10575;50.124;8.582;2023-03-31T15:32:25;3.13;;;1.05;;
20828;SDS011;10575;50.124;8.582;2023-03-31T15:34:52;4.82;;;1.20;;
20828;SDS011;10575;50.124;8.582;2023-03-31T15:37:23;2.97;;;1.15;;
20828;SDS011;10575;50.124;8.582;2023-03-31T15:39:51;4.80;;;1.60;;
20828;SDS011;10575;50.124;8.582;2023-03-31T15:42:21;4.45;;;1.27;;
20828;SDS011;10575;50.124;8.582;2023-03-31T15:44:47;3.88;;;0.93;;
20828;SDS011;10575;50.124;8.582;2023-03-31T15:47:18;4.32;;;1.08;;
20828;SDS011;10575;50.124;8.582;2023-03-31T15:49:46;5.85;;;1.50;;
20828;SDS011;10575;50.124;8.582;2023-03-31T15:52:56;3.10;;;0.90;;
20828;SDS011;10575;50.124;8.582;2023-03-31T15:57:53;5.38;;;1.33;;
20828;SDS011;10575;50.124;8.582;2023-03-31T16:02:58;2.10;;;0.93;;
20828;SDS011;10575;50.124;8.582;2023-03-31T16:05:46;5.40;;;1.42;;
20828;SDS011;10575;50.124;8.582;2023-03-31T16:08:27;3.20;;;1.00;;
20828;SDS011;10575;50.124;8.582;2023-03-31T16:11:03;4.78;;;1.20;;
20828;SDS011;10575;50.124;8.582;2023-03-31T16:13:52;2.65;;;0.90;;
20828;SDS011;10575;50.124;8.582;2023-03-31T16:16:21;4.47;;;1.33;;
20828;SDS011;10575;50.124;8.582;2023-03-31T16:18:50;7.32;;;1.33;;
20828;SDS011;10575;50.124;8.582;2023-03-31T16:21:44;4.43;;;1.20;;
20828;SDS011;10575;50.124;8.582;2023-03-31T16:24:16;6.18;;;1.27;;
20828;SDS011;10575;50.124;8.582;2023-03-31T16:26:46;8.80;;;3.30;;
20828;SDS011;10575;50.124;8.582;2023-03-31T16:29:18;9.93;;;2.38;;
20828;SDS011;10575;50.124;8.582;2023-03-31T16:31:45;6.95;;;3.47;;
20828;SDS011;10575;50.124;8.582;2023-03-31T16:34:11;75.85;;;50.30;;
20828;SDS011;10575;50.124;8.582;2023-03-31T16:36:37;56.15;;;38.70;;
20828;SDS011;10575;50.124;8.582;2023-03-31T16:39:02;89.45;;;51.60;;
20828;SDS011;10575;50.124;8.582;2023-03-31T16:41:33;35.67;;;20.33;;
20828;SDS011;10575;50.124;8.582;2023-03-31T16:44:00;42.10;;;21.60;;
20828;SDS011;10575;50.124;8.582;2023-03-31T16:46:26;23.67;;;11.57;;
20828;SDS011;10575;50.124;8.582;2023-03-31T16:48:52;12.48;;;5.50;;
20828;SDS011;10575;50.124;8.582;2023-03-31T16:51:17;31.27;;;17.13;;
20828;SDS011;10575;50.124;8.582;2023-03-31T16:53:43;13.15;;;7.72;;
20828;SDS011;10575;50.124;8.582;2023-03-31T16:56:09;12.57;;;3.97;;
20828;SDS011;10575;50.124;8.582;2023-03-31T16:58:39;37.10;;;13.57;;
20828;SDS011;10575;50.124;8.582;2023-03-31T17:01:06;114.13;;;48.50;;
20828;SDS011;10575;50.124;8.582;2023-03-31T17:03:32;61.70;;;27.02;;
20828;SDS011;10575;50.124;8.582;2023-03-31T17:06:03;16.80;;;8.48;;
20828;SDS011;10575;50.124;8.582;2023-03-31T17:08:31;38.97;;;19.92;;
20828;SDS011;10575;50.124;8.582;2023-03-31T17:13:28;12.52;;;5.53;;
20828;SDS011;10575;50.124;8.582;2023-03-31T17:15:54;12.23;;;4.30;;
20828;SDS011;10575;50.124;8.582;2023-03-31T17:18:20;9.77;;;1.88;;
20828;SDS011;10575;50.124;8.582;2023-03-31T17:20:46;10.15;;;2.78;;
20828;SDS011;10575;50.124;8.582;2023-03-31T17:23:11;8.65;;;2.10;;
20828;SDS011;10575;50.124;8.582;2023-03-31T17:25:37;8.43;;;4.10;;
20828;SDS011;10575;50.124;8.582;2023-03-31T17:28:03;10.40;;;4.22;;
20828;SDS011;10575;50.124;8.582;2023-03-31T17:30:29;8.38;;;3.67;;
20828;SDS011;10575;50.124;8.582;2023-03-31T17:32:56;9.00;;;4.25;;
20828;SDS011;10575;50.124;8.582;2023-03-31T17:35:22;8.65;;;3.58;;
20828;SDS011;10575;50.124;8.582;2023-03-31T17:37:48;7.80;;;2.75;;
20828;SDS011;10575;50.124;8.582;2023-03-31T17:40:17;4.57;;;2.10;;
20828;SDS011;10575;50.124;8.582;2023-03-31T17:42:43;5.30;;;2.15;;
20828;SDS011;10575;50.124;8.582;2023-03-31T17:45:11;8.02;;;3.15;;
20828;SDS011;10575;50.124;8.582;2023-03-31T17:47:37;8.40;;;2.17;;
20828;SDS011;10575;50.124;8.582;2023-03-31T17:50:03;6.05;;;3.00;;